Time;durP1;ratioP1;P1;durP2;ratioP2;P2;SDS_P1;SDS_P2;PMS_P1;PMS_P2;Temp;Humidity;BMP_temperature;BMP_pressure;BME280_temperature;BME280_humidity;BME280_pressure;Samples;Min_cycle;Max_cycle;Signal;HPM_P1;HPM_P2
2023/08/20 00:00:09;;;;;;;0.30;0.30;;;;;;;;;;6306302;22;20177;-85
2023/08/20 00:02:38;;;;;;;0.30;0.30;;;;;;;;;;6305622;22;20176;-85
2023/08/20 00:05:07;;;;;;;0.30;0.30;;;;;;;;;;6306083;22;20191;-85
2023/08/20 00:07:36;;;;;;;0.30;0.30;;;;;;;;;;6306001;22;20165;-85
2023/08/20 00:10:06;;;;;;;1.17;1.07;;;;;;;;;;6306211;22;20176;-86
2023/08/20 00:12:34;;;;;;;3.63;1.83;;;;;;;;;;6305833;22;20172;-86
2023/08/20 00:15:05;;;;;;;2.43;1.90;;;;;;;;;;6305371;22;20200;-85
2023/08/20 00:17:36;;;;;;;1.23;1.23;;;;;;;;;;6306143;22;20171;-85
2023/08/20 00:20:10;;;;;;;0.47;0.47;;;;;;;;;;6305931;22;20214;-85
2023/08/20 00:22:39;;;;;;;0.30;0.30;;;;;;;;;;6305491;22;20318;-89
2023/08/20 00:25:08;;;;;;;0.30;0.30;;;;;;;;;;6306834;22;20220;-90
2023/08/20 00:27:37;;;;;;;0.30;0.30;;;;;;;;;;6306895;22;20252;-90
2023/08/20 00:30:06;;;;;;;1.83;1.20;;;;;;;;;;6306816;22;20166;-89
2023/08/20 00:32:36;;;;;;;2.23;1.73;;;;;;;;;;6305798;22;20173;-85
2023/08/20 00:35:07;;;;;;;5.97;1.93;;;;;;;;;;6305660;22;20182;-84
2023/08/20 00:37:35;;;;;;;4.13;2.23;;;;;;;;;;6306316;22;20180;-84
2023/08/20 00:40:05;;;;;;;6.53;2.93;;;;;;;;;;6305804;22;20196;-85
2023/08/20 00:42:34;;;;;;;4.57;2.27;;;;;;;;;;6305635;22;20172;-86
2023/08/20 00:45:03;;;;;;;2.57;1.17;;;;;;;;;;6305879;22;20184;-85
2023/08/20 00:47:32;;;;;;;4.97;2.50;;;;;;;;;;6305859;22;20171;-85
2023/08/20 00:50:06;;;;;;;3.63;1.50;;;;;;;;;;6305082;22;20259;-85
2023/08/20 00:52:35;;;;;;;3.37;2.50;;;;;;;;;;6305616;22;20358;-85
2023/08/20 00:55:08;;;;;;;2.00;1.20;;;;;;;;;;6306514;22;20173;-85
2023/08/20 00:57:37;;;;;;;5.60;2.47;;;;;;;;;;6305746;22;20176;-85
2023/08/20 01:00:09;;;;;;;2.47;1.57;;;;;;;;;;6305946;22;20165;-84
2023/08/20 01:02:37;;;;;;;9.57;2.60;;;;;;;;;;6305411;22;20180;-85
2023/08/20 01:05:08;;;;;;;4.70;1.97;;;;;;;;;;6305785;22;20283;-86
2023/08/20 01:07:41;;;;;;;4.13;2.37;;;;;;;;;;6305398;22;20169;-86
2023/08/20 01:10:14;;;;;;;6.03;1.93;;;;;;;;;;6305839;22;20183;-85
2023/08/20 01:12:43;;;;;;;10.60;4.30;;;;;;;;;;6305685;22;20200;-89
2023/08/20 01:15:13;;;;;;;6.70;3.30;;;;;;;;;;6306186;22;20160;-89
2023/08/20 01:17:42;;;;;;;3.37;2.23;;;;;;;;;;6306496;22;20192;-89
2023/08/20 01:20:13;;;;;;;5.70;1.67;;;;;;;;;;6306795;22;20187;-89
2023/08/20 01:22:54;;;;;;;17.20;3.13;;;;;;;;;;6306340;22;20391;-89
2023/08/20 01:25:30;;;;;;;6.17;2.63;;;;;;;;;;6305914;22;20192;-89
2023/08/20 01:28:04;;;;;;;8.63;2.53;;;;;;;;;;6306685;22;20172;-89
2023/08/20 01:30:34;;;;;;;0.50;0.50;;;;;;;;;;6306329;22;20167;-90
2023/08/20 01:33:03;;;;;;;3.60;0.97;;;;;;;;;;6306240;22;20191;-89
2023/08/20 01:35:32;;;;;;;1.80;1.40;;;;;;;;;;6305735;22;20200;-89
2023/08/20 01:38:00;;;;;;;7.30;2.93;;;;;;;;;;6306917;22;20176;-89
2023/08/20 01:40:29;;;;;;;7.37;3.03;;;;;;;;;;6306194;22;20176;-90
2023/08/20 01:42:58;;;;;;;7.93;2.03;;;;;;;;;;6306081;22;20164;-90
2023/08/20 01:45:27;;;;;;;8.03;3.13;;;;;;;;;;6305659;22;20195;-84
2023/08/20 01:47:56;;;;;;;9.17;3.13;;;;;;;;;;6305615;22;20356;-85
2023/08/20 01:50:25;;;;;;;7.53;2.33;;;;;;;;;;6305619;22;20170;-85
2023/08/20 01:52:53;;;;;;;6.10;2.50;;;;;;;;;;6305798;22;20164;-89
2023/08/20 01:55:22;;;;;;;15.57;2.93;;;;;;;;;;6305850;22;20164;-89
2023/08/20 01:57:51;;;;;;;6.87;2.27;;;;;;;;;;6307528;22;20173;-89
2023/08/20 02:00:19;;;;;;;10.27;2.97;;;;;;;;;;6305618;22;20222;-88
2023/08/20 02:02:48;;;;;;;0.77;0.63;;;;;;;;;;6305086;22;20164;-85
2023/08/20 02:05:18;;;;;;;2.60;1.90;;;;;;;;;;6305786;22;20192;-85
2023/08/20 02:07:46;;;;;;;7.13;2.53;;;;;;;;;;6305789;22;20204;-89
2023/08/20 02:10:15;;;;;;;7.37;2.87;;;;;;;;;;6305182;22;20259;-90
2023/08/20 02:12:43;;;;;;;6.73;2.57;;;;;;;;;;6306298;22;20169;-89
2023/08/20 02:15:12;;;;;;;6.23;2.77;;;;;;;;;;6305826;22;20169;-90
2023/08/20 02:17:41;;;;;;;9.47;2.73;;;;;;;;;;6305979;22;20168;-89
2023/08/20 02:20:10;;;;;;;6.27;2.80;;;;;;;;;;6305405;22;20177;-89
2023/08/20 02:22:40;;;;;;;6.23;2.27;;;;;;;;;;6305926;22;20170;-89
2023/08/20 02:25:09;;;;;;;4.23;2.07;;;;;;;;;;6306568;22;20175;-89
2023/08/20 02:27:38;;;;;;;15.23;3.23;;;;;;;;;;6305378;22;20230;-89
2023/08/20 02:30:07;;;;;;;6.43;3.27;;;;;;;;;;6306261;22;20284;-90
2023/08/20 02:32:35;;;;;;;1.00;0.90;;;;;;;;;;6306427;22;20172;-90
2023/08/20 02:35:05;;;;;;;12.50;3.00;;;;;;;;;;6305917;22;20200;-89
2023/08/20 02:37:34;;;;;;;2.00;1.77;;;;;;;;;;6306560;22;20234;-89
2023/08/20 02:40:06;;;;;;;3.67;1.63;;;;;;;;;;6306939;22;20172;-89
2023/08/20 02:42:34;;;;;;;2.80;1.80;;;;;;;;;;6306419;22;20181;-88
2023/08/20 02:45:03;;;;;;;6.10;2.97;;;;;;;;;;6307173;22;20176;-85
2023/08/20 02:47:31;;;;;;;7.00;2.70;;;;;;;;;;6307244;22;20189;-84
2023/08/20 02:50:00;;;;;;;6.93;2.97;;;;;;;;;;6308078;22;20172;-89
2023/08/20 02:52:28;;;;;;;6.43;2.40;;;;;;;;;;6308624;22;20199;-89
2023/08/20 02:54:57;;;;;;;0.30;0.30;;;;;;;;;;6308191;22;20176;-90
2023/08/20 02:57:27;;;;;;;0.30;0.30;;;;;;;;;;6308163;22;20182;-89
2023/08/20 02:59:55;;;;;;;0.30;0.30;;;;;;;;;;6307975;22;20180;-89
2023/08/20 03:02:24;;;;;;;0.37;0.37;;;;;;;;;;6307428;22;20204;-88
2023/08/20 03:04:52;;;;;;;4.67;2.13;;;;;;;;;;6307821;22;20176;-89
2023/08/20 03:07:22;;;;;;;16.03;3.37;;;;;;;;;;6307429;22;20189;-88
2023/08/20 03:09:50;;;;;;;8.47;3.00;;;;;;;;;;6307666;22;20182;-88
2023/08/20 03:12:19;;;;;;;6.83;3.10;;;;;;;;;;6305919;22;20263;-85
2023/08/20 03:14:48;;;;;;;2.17;1.40;;;;;;;;;;6306798;22;20224;-85
2023/08/20 03:17:17;;;;;;;2.03;2.03;;;;;;;;;;6306941;22;20173;-85
2023/08/20 03:19:56;;;;;;;1.00;0.90;;;;;;;;;;6306548;22;20169;-89
2023/08/20 03:22:24;;;;;;;12.60;2.07;;;;;;;;;;6307168;22;20168;-89
2023/08/20 03:24:53;;;;;;;6.37;2.27;;;;;;;;;;6307584;22;20172;-89
2023/08/20 03:27:22;;;;;;;5.27;2.80;;;;;;;;;;6306836;22;20202;-88
2023/08/20 03:29:53;;;;;;;6.70;1.10;;;;;;;;;;6306486;22;20169;-89
2023/08/20 03:32:22;;;;;;;4.63;1.40;;;;;;;;;;6306625;22;20173;-90
2023/08/20 03:34:50;;;;;;;4.57;3.93;;;;;;;;;;6307025;22;20238;-89
2023/08/20 03:37:19;;;;;;;5.83;2.33;;;;;;;;;;6306496;22;20283;-89
2023/08/20 03:39:47;;;;;;;11.30;2.47;;;;;;;;;;6306358;22;20197;-89
2023/08/20 03:42:16;;;;;;;7.83;2.67;;;;;;;;;;6306893;22;20180;-85
2023/08/20 03:44:44;;;;;;;4.07;1.50;;;;;;;;;;6306429;22;20196;-85
2023/08/20 03:47:15;;;;;;;1.33;1.23;;;;;;;;;;6305850;22;20194;-85
2023/08/20 03:49:44;;;;;;;0.80;0.80;;;;;;;;;;6306824;22;20233;-89
2023/08/20 03:52:12;;;;;;;0.67;0.67;;;;;;;;;;6306514;22;20196;-86
2023/08/20 03:54:40;;;;;;;3.93;1.60;;;;;;;;;;6306141;22;20247;-85
2023/08/20 03:57:09;;;;;;;0.67;0.67;;;;;;;;;;6305935;22;20175;-85
2023/08/20 03:59:37;;;;;;;5.40;1.93;;;;;;;;;;6306422;22;20188;-84
2023/08/20 04:02:06;;;;;;;2.70;1.37;;;;;;;;;;6306161;22;20176;-85
2023/08/20 04:04:37;;;;;;;3.17;1.77;;;;;;;;;;6306230;22;20179;-85
2023/08/20 04:07:06;;;;;;;3.30;2.00;;;;;;;;;;6305781;22;20195;-84
2023/08/20 04:09:36;;;;;;;2.63;2.17;;;;;;;;;;6306548;22;20247;-85
2023/08/20 04:12:05;;;;;;;6.53;3.93;;;;;;;;;;6305939;22;20172;-84
2023/08/20 04:14:34;;;;;;;8.43;2.90;;;;;;;;;;6306315;22;20177;-89
2023/08/20 04:17:02;;;;;;;3.27;1.90;;;;;;;;;;6306302;22;20174;-89
2023/08/20 04:19:31;;;;;;;8.97;3.03;;;;;;;;;;6306533;22;20180;-89
2023/08/20 04:22:00;;;;;;;8.40;3.17;;;;;;;;;;6305214;22;20164;-89
2023/08/20 04:24:29;;;;;;;9.07;2.87;;;;;;;;;;6306000;22;20173;-89
2023/08/20 04:26:58;;;;;;;0.30;0.30;;;;;;;;;;6305701;22;20364;-89
2023/08/20 04:29:27;;;;;;;5.03;2.40;;;;;;;;;;6306125;22;20228;-90
2023/08/20 04:31:55;;;;;;;2.53;1.50;;;;;;;;;;6305632;22;20183;-89
2023/08/20 04:34:24;;;;;;;11.27;4.03;;;;;;;;;;6306062;22;20164;-89
2023/08/20 04:36:52;;;;;;;6.37;2.80;;;;;;;;;;6306375;22;20204;-89
2023/08/20 04:39:22;;;;;;;12.83;3.43;;;;;;;;;;6305875;22;20212;-90
2023/08/20 04:41:51;;;;;;;10.03;3.70;;;;;;;;;;6305851;22;20196;-88
2023/08/20 04:44:19;;;;;;;10.10;4.50;;;;;;;;;;6306552;22;20176;-89
2023/08/20 04:46:48;;;;;;;11.20;4.33;;;;;;;;;;6306128;22;20196;-89
2023/08/20 04:49:16;;;;;;;9.80;4.03;;;;;;;;;;6305477;22;20168;-89
2023/08/20 04:51:45;;;;;;;13.73;4.30;;;;;;;;;;6305752;22;20195;-89
2023/08/20 04:54:13;;;;;;;11.30;4.07;;;;;;;;;;6305792;22;20227;-90
2023/08/20 04:56:43;;;;;;;16.73;3.70;;;;;;;;;;6305624;22;20171;-88
2023/08/20 04:59:12;;;;;;;7.00;2.80;;;;;;;;;;6305759;22;20179;-89
2023/08/20 05:01:41;;;;;;;14.33;4.67;;;;;;;;;;6306583;22;20168;-89
2023/08/20 05:04:09;;;;;;;5.67;3.17;;;;;;;;;;6306036;22;20178;-89
2023/08/20 05:06:38;;;;;;;5.80;2.43;;;;;;;;;;6305014;22;20201;-89
2023/08/20 05:09:06;;;;;;;8.17;3.10;;;;;;;;;;6306197;22;20172;-89
2023/08/20 05:11:35;;;;;;;11.13;3.27;;;;;;;;;;6306159;22;20172;-89
2023/08/20 05:14:05;;;;;;;3.73;1.57;;;;;;;;;;6305728;22;20190;-88
2023/08/20 05:16:33;;;;;;;0.30;0.30;;;;;;;;;;6305147;22;20213;-89
2023/08/20 05:19:02;;;;;;;0.30;0.30;;;;;;;;;;6306448;22;20172;-89
2023/08/20 05:21:30;;;;;;;1.93;1.23;;;;;;;;;;6306251;22;20181;-90
2023/08/20 05:23:59;;;;;;;6.23;2.60;;;;;;;;;;6305749;22;20168;-89
2023/08/20 05:26:27;;;;;;;6.30;2.53;;;;;;;;;;6306221;22;20175;-90
2023/08/20 05:28:56;;;;;;;5.40;2.27;;;;;;;;;;6306002;22;20301;-88
2023/08/20 05:31:26;;;;;;;1.93;1.30;;;;;;;;;;6306377;22;20182;-90
2023/08/20 05:33:54;;;;;;;0.30;0.30;;;;;;;;;;6306007;22;20604;-88
2023/08/20 05:36:23;;;;;;;0.30;0.30;;;;;;;;;;6306555;22;20228;-89
2023/08/20 05:38:51;;;;;;;0.20;0.20;;;;;;;;;;6306290;22;20168;-90
2023/08/20 05:41:20;;;;;;;0.67;0.67;;;;;;;;;;6306263;22;20186;-89
2023/08/20 05:43:48;;;;;;;0.30;0.30;;;;;;;;;;6305779;22;20171;-90
2023/08/20 05:46:17;;;;;;;5.83;1.50;;;;;;;;;;6306728;22;20168;-89
2023/08/20 05:48:47;;;;;;;1.53;1.43;;;;;;;;;;6305878;22;20222;-90
2023/08/20 05:51:15;;;;;;;4.83;2.30;;;;;;;;;;6305300;22;20199;-89
2023/08/20 05:53:44;;;;;;;3.30;0.97;;;;;;;;;;6306419;22;20197;-91
2023/08/20 05:56:12;;;;;;;0.30;0.30;;;;;;;;;;6306490;22;20175;-89
2023/08/20 05:58:41;;;;;;;3.60;0.90;;;;;;;;;;6305552;22;20164;-90
2023/08/20 06:01:09;;;;;;;0.57;0.57;;;;;;;;;;6306158;22;20169;-90
2023/08/20 06:03:38;;;;;;;4.10;1.10;;;;;;;;;;6306518;22;20169;-90
2023/08/20 06:06:07;;;;;;;0.30;0.30;;;;;;;;;;6305626;22;20192;-89
2023/08/20 06:08:37;;;;;;;1.87;1.53;;;;;;;;;;6305407;22;20201;-90
2023/08/20 06:11:05;;;;;;;8.37;2.33;;;;;;;;;;6305536;22;20170;-89
2023/08/20 06:13:33;;;;;;;8.17;3.07;;;;;;;;;;6305655;22;20173;-90
2023/08/20 06:16:02;;;;;;;2.93;0.83;;;;;;;;;;6306006;22;20248;-89
2023/08/20 06:18:30;;;;;;;0.40;0.40;;;;;;;;;;6306324;22;20219;-90
2023/08/20 06:20:59;;;;;;;0.83;0.80;;;;;;;;;;6308053;22;20198;-90
2023/08/20 06:23:29;;;;;;;2.03;0.90;;;;;;;;;;6307824;22;20180;-90
2023/08/20 06:26:11;;;;;;;0.93;0.93;;;;;;;;;;6306982;22;20179;-90
2023/08/20 06:28:40;;;;;;;2.13;2.00;;;;;;;;;;6307313;22;20186;-88
2023/08/20 06:31:08;;;;;;;5.57;3.57;;;;;;;;;;6308675;22;20178;-90
2023/08/20 06:33:37;;;;;;;2.00;2.00;;;;;;;;;;6308007;22;20184;-89
2023/08/20 06:36:06;;;;;;;10.60;2.63;;;;;;;;;;6306196;22;20203;-88
2023/08/20 06:38:36;;;;;;;10.50;1.23;;;;;;;;;;6307991;22;20171;-89
2023/08/20 06:41:04;;;;;;;9.77;3.40;;;;;;;;;;6307756;22;20219;-89
2023/08/20 06:43:32;;;;;;;4.80;2.17;;;;;;;;;;6307205;22;20224;-90
2023/08/20 06:46:03;;;;;;;10.23;1.63;;;;;;;;;;6307165;22;20164;-91
2023/08/20 06:48:32;;;;;;;1.70;1.17;;;;;;;;;;6307124;22;20227;-85
2023/08/20 06:51:00;;;;;;;3.07;1.20;;;;;;;;;;6307301;22;20275;-91
2023/08/20 06:53:29;;;;;;;0.73;0.73;;;;;;;;;;6306787;22;20171;-90
2023/08/20 06:55:59;;;;;;;4.43;1.37;;;;;;;;;;6307580;22;20177;-90
2023/08/20 06:58:27;;;;;;;12.97;1.10;;;;;;;;;;6307648;22;20248;-89
2023/08/20 07:00:56;;;;;;;5.87;1.70;;;;;;;;;;6307348;22;20169;-89
2023/08/20 07:03:24;;;;;;;0.50;0.50;;;;;;;;;;6307087;22;20175;-89
2023/08/20 07:05:53;;;;;;;2.17;0.50;;;;;;;;;;6307422;22;20229;-89
2023/08/20 07:08:21;;;;;;;2.00;1.90;;;;;;;;;;6307549;22;20181;-89
2023/08/20 07:10:49;;;;;;;3.00;0.93;;;;;;;;;;6307281;22;20260;-89
2023/08/20 07:13:19;;;;;;;0.30;0.30;;;;;;;;;;6306619;22;20177;-89
2023/08/20 07:15:48;;;;;;;5.80;1.50;;;;;;;;;;6306850;22;20198;-89
2023/08/20 07:18:17;;;;;;;3.30;2.17;;;;;;;;;;6307454;22;20165;-89
2023/08/20 07:20:46;;;;;;;6.60;1.63;;;;;;;;;;6306399;22;20179;-90
2023/08/20 07:23:14;;;;;;;9.73;3.33;;;;;;;;;;6307109;22;20181;-88
2023/08/20 07:25:44;;;;;;;0.50;0.50;;;;;;;;;;6307806;22;20257;-89
2023/08/20 07:28:13;;;;;;;3.23;1.63;;;;;;;;;;6306919;22;20190;-89
2023/08/20 07:30:43;;;;;;;5.30;2.10;;;;;;;;;;6306515;22;20229;-89
2023/08/20 07:33:11;;;;;;;1.30;1.20;;;;;;;;;;6306692;22;20172;-89
2023/08/20 07:35:40;;;;;;;1.13;0.70;;;;;;;;;;6306993;22;20212;-89
2023/08/20 07:38:08;;;;;;;4.23;2.27;;;;;;;;;;6306578;22;20166;-89
2023/08/20 07:40:37;;;;;;;0.57;0.47;;;;;;;;;;6306472;22;20174;-89
2023/08/20 07:43:06;;;;;;;0.67;0.67;;;;;;;;;;6307168;22;20174;-89
2023/08/20 07:45:34;;;;;;;3.80;1.53;;;;;;;;;;6306733;22;20178;-90
2023/08/20 07:48:04;;;;;;;4.87;1.93;;;;;;;;;;6306439;22;20178;-90
2023/08/20 07:50:34;;;;;;;1.70;0.70;;;;;;;;;;6306980;22;20217;-89
2023/08/20 07:53:03;;;;;;;1.60;1.50;;;;;;;;;;6306779;22;20228;-90
2023/08/20 07:55:32;;;;;;;9.87;1.57;;;;;;;;;;6305470;22;20167;-88
2023/08/20 07:58:01;;;;;;;4.10;1.33;;;;;;;;;;6306608;22;20179;-90
2023/08/20 08:00:29;;;;;;;2.33;1.27;;;;;;;;;;6306466;22;20197;-90
2023/08/20 08:02:57;;;;;;;4.53;0.83;;;;;;;;;;6306473;22;20171;-90
2023/08/20 08:05:27;;;;;;;5.67;1.97;;;;;;;;;;6305978;22;20176;-88
2023/08/20 08:07:56;;;;;;;2.13;1.83;;;;;;;;;;6306852;22;20171;-89
2023/08/20 08:10:24;;;;;;;4.57;1.20;;;;;;;;;;6306872;22;20322;-90
2023/08/20 08:12:53;;;;;;;5.87;2.33;;;;;;;;;;6306308;22;20195;-89
2023/08/20 08:15:21;;;;;;;2.40;1.30;;;;;;;;;;6306629;22;20172;-90
2023/08/20 08:17:50;;;;;;;1.50;1.40;;;;;;;;;;6307099;22;20175;-89
2023/08/20 08:20:19;;;;;;;1.93;1.23;;;;;;;;;;6306541;22;20176;-92
2023/08/20 08:22:48;;;;;;;5.70;2.00;;;;;;;;;;6305698;22;20165;-91
2023/08/20 08:25:19;;;;;;;3.10;0.67;;;;;;;;;;6307249;22;20246;-91
2023/08/20 08:27:48;;;;;;;2.93;1.73;;;;;;;;;;6306651;22;20258;-91
2023/08/20 08:30:29;;;;;;;4.90;1.90;;;;;;;;;;6306359;22;20207;-91
2023/08/20 08:32:58;;;;;;;3.27;1.53;;;;;;;;;;6307107;22;20202;-92
2023/08/20 08:35:27;;;;;;;8.30;2.47;;;;;;;;;;6306844;22;20172;-91
2023/08/20 08:37:57;;;;;;;2.27;1.20;;;;;;;;;;6306942;22;20175;-92
2023/08/20 08:40:27;;;;;;;3.10;0.83;;;;;;;;;;6306132;22;20266;-91
2023/08/20 08:42:55;;;;;;;1.63;0.93;;;;;;;;;;6306280;22;20175;-92
2023/08/20 08:45:24;;;;;;;3.67;2.30;;;;;;;;;;6306907;22;20168;-90
2023/08/20 08:47:54;;;;;;;0.63;0.63;;;;;;;;;;6307184;22;20172;-91
2023/08/20 08:50:23;;;;;;;0.60;0.60;;;;;;;;;;6306814;22;20189;-91
2023/08/20 08:52:53;;;;;;;2.43;1.60;;;;;;;;;;6307269;22;20179;-91
2023/08/20 08:55:23;;;;;;;3.00;1.43;;;;;;;;;;6306669;22;20178;-91
2023/08/20 08:57:51;;;;;;;1.00;0.90;;;;;;;;;;6306246;22;20169;-91
2023/08/20 09:00:20;;;;;;;5.47;2.03;;;;;;;;;;6306775;22;20232;-90
2023/08/20 09:02:49;;;;;;;5.60;2.10;;;;;;;;;;6306608;22;20203;-91
2023/08/20 09:05:17;;;;;;;5.77;1.77;;;;;;;;;;6306112;22;20205;-91
2023/08/20 09:07:46;;;;;;;4.90;1.07;;;;;;;;;;6306106;22;20259;-92
2023/08/20 09:10:18;;;;;;;1.13;0.60;;;;;;;;;;6305915;22;20186;-91
2023/08/20 09:12:49;;;;;;;2.07;1.50;;;;;;;;;;6306829;22;20170;-90
2023/08/20 09:15:17;;;;;;;5.93;1.93;;;;;;;;;;6305385;22;20176;-89
2023/08/20 09:17:46;;;;;;;1.03;0.93;;;;;;;;;;6306149;22;20362;-91
2023/08/20 09:20:15;;;;;;;7.10;2.03;;;;;;;;;;6305730;22;20169;-90
2023/08/20 09:22:50;;;;;;;4.87;1.63;;;;;;;;;;6305550;22;20178;-89
2023/08/20 09:25:19;;;;;;;7.73;2.70;;;;;;;;;;6305504;22;20172;-90
2023/08/20 09:27:48;;;;;;;3.40;2.40;;;;;;;;;;6305878;22;20183;-90
2023/08/20 09:30:19;;;;;;;2.53;1.33;;;;;;;;;;6305480;22;20189;-90
2023/08/20 09:32:47;;;;;;;8.50;3.27;;;;;;;;;;6305020;22;20260;-90
2023/08/20 09:35:20;;;;;;;7.57;3.20;;;;;;;;;;6305528;22;20192;-90
2023/08/20 09:37:48;;;;;;;1.70;1.40;;;;;;;;;;6305567;22;20178;-90
2023/08/20 09:40:17;;;;;;;11.13;3.33;;;;;;;;;;6306236;22;20171;-91
2023/08/20 09:42:46;;;;;;;2.33;2.13;;;;;;;;;;6305732;22;20250;-90
2023/08/20 09:45:16;;;;;;;3.40;1.30;;;;;;;;;;6305968;22;20175;-90
2023/08/20 09:47:45;;;;;;;13.73;2.53;;;;;;;;;;6305967;22;20179;-90
2023/08/20 09:50:14;;;;;;;8.20;3.03;;;;;;;;;;6305505;22;20195;-90
2023/08/20 09:52:47;;;;;;;6.23;2.50;;;;;;;;;;6306838;22;20221;-90
2023/08/20 09:55:18;;;;;;;1.70;1.10;;;;;;;;;;6308444;22;20174;-91
2023/08/20 09:57:49;;;;;;;4.67;2.33;;;;;;;;;;6307695;22;20181;-89
2023/08/20 10:00:19;;;;;;;8.93;2.40;;;;;;;;;;6307423;22;20174;-90
2023/08/20 10:02:48;;;;;;;0.50;0.50;;;;;;;;;;6308003;22;20176;-89
2023/08/20 10:05:16;;;;;;;2.73;1.67;;;;;;;;;;6308190;22;20173;-89
2023/08/20 10:07:46;;;;;;;2.63;1.37;;;;;;;;;;6308274;22;20175;-90
2023/08/20 10:10:14;;;;;;;4.30;2.40;;;;;;;;;;6308226;22;20209;-90
2023/08/20 10:12:43;;;;;;;2.90;0.80;;;;;;;;;;6308134;22;20197;-90
2023/08/20 10:15:13;;;;;;;6.33;1.73;;;;;;;;;;6308734;22;20230;-90
2023/08/20 10:17:45;;;;;;;2.33;1.57;;;;;;;;;;6307457;22;20175;-90
2023/08/20 10:20:16;;;;;;;4.03;2.23;;;;;;;;;;6307472;22;20194;-85
2023/08/20 10:22:44;;;;;;;1.30;0.93;;;;;;;;;;6306889;22;20176;-85
2023/08/20 10:25:14;;;;;;;4.10;2.03;;;;;;;;;;6306616;22;20166;-87
2023/08/20 10:27:43;;;;;;;0.73;0.73;;;;;;;;;;6306784;22;20175;-86
2023/08/20 10:30:15;;;;;;;2.23;1.10;;;;;;;;;;6306691;22;20192;-85
2023/08/20 10:32:49;;;;;;;5.67;2.07;;;;;;;;;;6307050;22;20199;-85
2023/08/20 10:35:18;;;;;;;6.63;2.77;;;;;;;;;;6306594;22;20178;-85
2023/08/20 10:38:03;;;;;;;1.17;0.70;;;;;;;;;;6304673;22;20197;-86
2023/08/20 10:40:50;;;;;;;5.27;1.77;;;;;;;;;;6306997;22;20252;-85
2023/08/20 10:43:28;;;;;;;3.53;1.27;;;;;;;;;;6306664;22;20184;-85
2023/08/20 10:46:07;;;;;;;4.73;1.70;;;;;;;;;;6306545;22;20169;-86
2023/08/20 10:48:40;;;;;;;2.53;1.43;;;;;;;;;;6307891;22;20175;-90
2023/08/20 10:51:15;;;;;;;3.73;0.90;;;;;;;;;;6307123;22;20203;-89
2023/08/20 10:53:44;;;;;;;2.23;1.40;;;;;;;;;;6306777;22;20265;-91
2023/08/20 10:56:14;;;;;;;5.50;1.90;;;;;;;;;;6307598;22;20177;-90
2023/08/20 10:58:43;;;;;;;6.80;2.17;;;;;;;;;;6307291;22;20199;-90
2023/08/20 11:01:20;;;;;;;3.37;1.30;;;;;;;;;;6306919;22;20168;-90
2023/08/20 11:03:56;;;;;;;7.03;2.30;;;;;;;;;;6307256;22;20223;-91
2023/08/20 11:06:25;;;;;;;8.60;1.57;;;;;;;;;;6308493;22;20169;-91
2023/08/20 11:08:54;;;;;;;1.30;1.00;;;;;;;;;;6307489;22;20176;-90
2023/08/20 11:11:24;;;;;;;5.97;2.00;;;;;;;;;;6306736;22;20182;-90
2023/08/20 11:13:52;;;;;;;4.03;1.33;;;;;;;;;;6306823;22;20182;-89
2023/08/20 11:16:21;;;;;;;3.97;1.70;;;;;;;;;;6306700;22;20253;-86
2023/08/20 11:18:50;;;;;;;2.17;1.97;;;;;;;;;;6305952;22;20182;-86
2023/08/20 11:21:20;;;;;;;3.90;1.40;;;;;;;;;;6307044;22;20179;-90
2023/08/20 11:23:49;;;;;;;3.30;1.00;;;;;;;;;;6307415;22;20174;-90
2023/08/20 11:26:19;;;;;;;5.00;2.40;;;;;;;;;;6307420;22;20175;-90
2023/08/20 11:28:48;;;;;;;8.23;2.73;;;;;;;;;;6306615;22;20178;-90
2023/08/20 11:31:16;;;;;;;0.43;0.40;;;;;;;;;;6306525;22;20247;-86
2023/08/20 11:33:45;;;;;;;4.33;1.40;;;;;;;;;;6307064;22;20171;-86
2023/08/20 11:36:14;;;;;;;2.63;1.90;;;;;;;;;;6306481;22;20257;-85
2023/08/20 11:38:44;;;;;;;2.40;1.43;;;;;;;;;;6306003;22;20168;-88
2023/08/20 11:41:12;;;;;;;6.27;2.53;;;;;;;;;;6306167;22;20186;-86
2023/08/20 11:43:42;;;;;;;1.43;1.30;;;;;;;;;;6306633;22;20182;-87
2023/08/20 11:46:15;;;;;;;1.10;0.80;;;;;;;;;;6305699;22;20182;-86
2023/08/20 11:48:58;;;;;;;5.77;1.40;;;;;;;;;;6306192;22;20168;-86
2023/08/20 11:51:27;;;;;;;2.03;0.73;;;;;;;;;;6306404;22;20206;-86
2023/08/20 11:53:56;;;;;;;1.70;1.60;;;;;;;;;;6305828;22;20176;-87
2023/08/20 11:56:25;;;;;;;2.20;1.20;;;;;;;;;;6305971;22;20181;-86
2023/08/20 11:58:54;;;;;;;1.60;0.87;;;;;;;;;;6306286;22;20171;-86
2023/08/20 12:01:23;;;;;;;1.17;1.00;;;;;;;;;;6306432;22;20177;-86
2023/08/20 12:03:51;;;;;;;1.77;1.27;;;;;;;;;;6305985;22;20176;-86
2023/08/20 12:06:20;;;;;;;3.70;1.73;;;;;;;;;;6306361;22;20169;-86
2023/08/20 12:08:49;;;;;;;5.70;1.27;;;;;;;;;;6306455;22;20175;-87
2023/08/20 12:11:19;;;;;;;2.97;2.33;;;;;;;;;;6305406;22;20207;-86
2023/08/20 12:13:49;;;;;;;1.77;1.40;;;;;;;;;;6305555;22;20193;-86
2023/08/20 12:16:18;;;;;;;5.87;1.80;;;;;;;;;;6306137;22;20242;-86
2023/08/20 12:18:47;;;;;;;3.50;1.13;;;;;;;;;;6306184;22;20171;-86
2023/08/20 12:21:16;;;;;;;1.87;1.13;;;;;;;;;;6305786;22;20176;-86
2023/08/20 12:23:44;;;;;;;2.00;1.70;;;;;;;;;;6306057;22;20171;-86
2023/08/20 12:26:13;;;;;;;4.90;1.90;;;;;;;;;;6306451;22;20172;-86
2023/08/20 12:28:43;;;;;;;0.30;0.30;;;;;;;;;;6305721;22;20174;-86
2023/08/20 12:31:11;;;;;;;0.80;0.60;;;;;;;;;;6305445;22;20213;-86
2023/08/20 12:33:40;;;;;;;3.80;1.33;;;;;;;;;;6305918;22;20169;-85
2023/08/20 12:36:08;;;;;;;3.50;1.30;;;;;;;;;;6305970;22;20204;-86
2023/08/20 12:38:37;;;;;;;2.97;1.07;;;;;;;;;;6305384;22;20249;-87
2023/08/20 12:41:06;;;;;;;0.47;0.47;;;;;;;;;;6305727;22;20168;-91
2023/08/20 12:43:34;;;;;;;2.70;1.17;;;;;;;;;;6305839;22;20203;-89
2023/08/20 12:46:04;;;;;;;1.70;1.60;;;;;;;;;;6306213;22;20176;-87
2023/08/20 12:48:33;;;;;;;6.73;1.73;;;;;;;;;;6305162;22;20175;-86
2023/08/20 12:51:02;;;;;;;1.90;1.30;;;;;;;;;;6305618;22;20233;-87
2023/08/20 12:53:31;;;;;;;10.90;1.83;;;;;;;;;;6305802;22;20176;-86
2023/08/20 12:55:59;;;;;;;2.30;1.03;;;;;;;;;;6305486;22;20183;-86
2023/08/20 12:58:28;;;;;;;1.00;1.00;;;;;;;;;;6305362;22;20182;-86
2023/08/20 13:00:57;;;;;;;6.43;1.13;;;;;;;;;;6306022;22;20266;-86
2023/08/20 13:03:27;;;;;;;3.07;1.50;;;;;;;;;;6305697;22;20193;-85
2023/08/20 13:05:57;;;;;;;4.20;1.27;;;;;;;;;;6305224;22;20181;-85
2023/08/20 13:08:26;;;;;;;2.50;1.23;;;;;;;;;;6305788;22;20168;-90
2023/08/20 13:10:55;;;;;;;1.63;1.03;;;;;;;;;;6305798;22;20247;-90
2023/08/20 13:13:24;;;;;;;9.53;3.53;;;;;;;;;;6305866;22;20221;-90
2023/08/20 13:15:53;;;;;;;0.77;0.67;;;;;;;;;;6307084;22;20201;-86
2023/08/20 13:18:24;;;;;;;0.93;0.60;;;;;;;;;;6305185;22;20191;-84
2023/08/20 13:20:55;;;;;;;3.87;0.83;;;;;;;;;;6305565;22;20174;-85
2023/08/20 13:23:24;;;;;;;3.40;1.23;;;;;;;;;;6304825;22;20186;-84
2023/08/20 13:25:53;;;;;;;6.80;1.90;;;;;;;;;;6305004;22;20231;-86
2023/08/20 13:28:21;;;;;;;3.23;1.63;;;;;;;;;;6305467;22;20174;-86
2023/08/20 13:30:50;;;;;;;4.97;1.43;;;;;;;;;;6305499;22;20188;-86
2023/08/20 13:33:18;;;;;;;1.60;1.07;;;;;;;;;;6305032;22;20193;-86
2023/08/20 13:35:47;;;;;;;3.70;0.87;;;;;;;;;;6305447;22;20190;-86
2023/08/20 13:38:17;;;;;;;2.53;1.30;;;;;;;;;;6305621;22;20193;-86
2023/08/20 13:40:45;;;;;;;4.00;1.47;;;;;;;;;;6305065;22;20175;-86
2023/08/20 13:43:14;;;;;;;0.60;0.60;;;;;;;;;;6305480;22;20176;-86
2023/08/20 13:45:42;;;;;;;1.80;0.77;;;;;;;;;;6305522;22;20170;-86
2023/08/20 13:48:11;;;;;;;5.63;1.80;;;;;;;;;;6305757;22;20183;-86
2023/08/20 13:50:40;;;;;;;0.70;0.70;;;;;;;;;;6304489;22;20194;-86
2023/08/20 13:53:10;;;;;;;2.53;1.20;;;;;;;;;;6305594;22;20195;-90
2023/08/20 13:55:39;;;;;;;0.83;0.83;;;;;;;;;;6305970;22;20176;-91
2023/08/20 13:58:08;;;;;;;2.63;0.90;;;;;;;;;;6306034;22;20450;-91
2023/08/20 14:00:38;;;;;;;1.83;0.97;;;;;;;;;;6305382;22;20182;-91
2023/08/20 14:03:07;;;;;;;1.30;0.87;;;;;;;;;;6307752;22;20172;-91
2023/08/20 14:05:35;;;;;;;3.73;1.57;;;;;;;;;;6306023;22;20225;-91
2023/08/20 14:08:04;;;;;;;2.90;1.17;;;;;;;;;;6305008;22;20172;-91
2023/08/20 14:10:32;;;;;;;1.70;0.90;;;;;;;;;;6306138;22;20172;-91
2023/08/20 14:13:02;;;;;;;3.60;2.30;;;;;;;;;;6305057;22;20259;-87
2023/08/20 14:15:31;;;;;;;2.70;1.60;;;;;;;;;;6305427;22;20186;-86
2023/08/20 14:18:00;;;;;;;3.80;1.13;;;;;;;;;;6304585;22;20176;-86
2023/08/20 14:20:28;;;;;;;1.03;0.87;;;;;;;;;;6305344;22;20196;-86
2023/08/20 14:22:57;;;;;;;2.60;0.90;;;;;;;;;;6304836;22;20172;-87
2023/08/20 14:25:25;;;;;;;2.53;1.57;;;;;;;;;;6304655;22;20175;-87
2023/08/20 14:27:54;;;;;;;3.07;0.80;;;;;;;;;;6305129;22;20176;-86
2023/08/20 14:30:24;;;;;;;4.53;1.53;;;;;;;;;;6305234;22;20176;-86
2023/08/20 14:32:53;;;;;;;0.47;0.47;;;;;;;;;;6304798;22;20303;-87
2023/08/20 14:35:21;;;;;;;4.30;1.50;;;;;;;;;;6304961;22;20176;-87
2023/08/20 14:37:50;;;;;;;1.90;0.83;;;;;;;;;;6305808;22;20203;-87
2023/08/20 14:40:18;;;;;;;0.67;0.60;;;;;;;;;;6307132;22;20262;-86
2023/08/20 14:42:47;;;;;;;0.40;0.40;;;;;;;;;;6306738;22;20176;-86
2023/08/20 14:45:15;;;;;;;0.70;0.70;;;;;;;;;;6306762;22;20177;-86
2023/08/20 14:47:45;;;;;;;0.83;0.63;;;;;;;;;;6306812;22;20172;-85
2023/08/20 14:50:14;;;;;;;4.90;1.67;;;;;;;;;;6307102;22;20180;-86
2023/08/20 14:52:42;;;;;;;3.23;1.63;;;;;;;;;;6305684;22;20214;-86
2023/08/20 14:55:11;;;;;;;1.00;0.90;;;;;;;;;;6306830;22;20176;-86